sensor_id;sensor_type;location;lat;lon;timestamp;pressure;altitude;pressure_sealevel;temperature;humidity
55757;BME280;41676;44.610;44.078;2024-01-07T00:02:15;100691.84;;;-0.97;100.00
55757;BME280;41676;44.610;44.078;2024-01-07T00:07:15;100654.63;;;-1.46;100.00
55757;BME280;41676;44.610;44.078;2024-01-07T00:12:16;100679.50;;;-1.25;100.00
55757;BME280;41676;44.610;44.078;2024-01-07T00:17:17;100675.34;;;-1.29;100.00
55757;BME280;41676;44.610;44.078;2024-01-07T00:22:18;100693.53;;;-1.27;100.00
55757;BME280;41676;44.610;44.078;2024-01-07T00:27:19;100677.91;;;-1.27;100.00
55757;BME280;41676;44.610;44.078;2024-01-07T00:32:20;100661.41;;;-1.28;100.00
55757;BME280;41676;44.610;44.078;2024-01-07T00:37:20;100644.84;;;-1.43;100.00
55757;BME280;41676;44.610;44.078;2024-01-07T00:42:21;100577.59;;;-1.99;100.00
55757;BME280;41676;44.610;44.078;2024-01-07T00:47:22;100622.16;;;-1.56;100.00
55757;BME280;41676;44.610;44.078;2024-01-07T00:52:23;100597.19;;;-1.45;100.00
55757;BME280;41676;44.610;44.078;2024-01-07T00:57:23;100582.66;;;-1.49;100.00
55757;BME280;41676;44.610;44.078;2024-01-07T01:02:24;100582.50;;;-1.46;100.00
55757;BME280;41676;44.610;44.078;2024-01-07T01:07:25;100603.25;;;-1.28;100.00
55757;BME280;41676;44.610;44.078;2024-01-07T01:12:26;100597.69;;;-1.38;100.00
55757;BME280;41676;44.610;44.078;2024-01-07T01:17:26;100540.47;;;-1.71;100.00
55757;BME280;41676;44.610;44.078;2024-01-07T01:22:27;100590.91;;;-1.41;100.00
55757;BME280;41676;44.610;44.078;2024-01-07T01:27:28;100586.69;;;-1.59;100.00
55757;BME280;41676;44.610;44.078;2024-01-07T01:32:29;100521.59;;;-1.91;100.00
55757;BME280;41676;44.610;44.078;2024-01-07T01:37:29;100587.63;;;-1.60;100.00
55757;BME280;41676;44.610;44.078;2024-01-07T01:42:33;100562.66;;;-1.48;100.00
55757;BME280;41676;44.610;44.078;2024-01-07T01:47:33;100509.41;;;-1.74;100.00
55757;BME280;41676;44.610;44.078;2024-01-07T01:52:34;100541.88;;;-1.50;100.00
55757;BME280;41676;44.610;44.078;2024-01-07T01:57:36;100570.75;;;-1.23;100.00
55757;BME280;41676;44.610;44.078;2024-01-07T02:02:40;100568.91;;;-1.21;100.00
55757;BME280;41676;44.610;44.078;2024-01-07T02:07:41;100560.00;;;-1.32;100.00
55757;BME280;41676;44.610;44.078;2024-01-07T02:12:41;100511.13;;;-1.43;100.00
55757;BME280;41676;44.610;44.078;2024-01-07T02:17:42;100505.53;;;-1.67;100.00
55757;BME280;41676;44.610;44.078;2024-01-07T02:22:43;100584.66;;;-1.22;100.00
55757;BME280;41676;44.610;44.078;2024-01-07T02:27:44;100583.72;;;-1.21;100.00
55757;BME280;41676;44.610;44.078;2024-01-07T02:32:45;100570.19;;;-1.28;100.00
55757;BME280;41676;44.610;44.078;2024-01-07T02:37:45;100568.41;;;-1.27;100.00
55757;BME280;41676;44.610;44.078;2024-01-07T02:42:47;100569.25;;;-1.27;100.00
55757;BME280;41676;44.610;44.078;2024-01-07T02:47:48;100515.34;;;-1.41;100.00
55757;BME280;41676;44.610;44.078;2024-01-07T02:52:49;100486.78;;;-1.58;100.00
55757;BME280;41676;44.610;44.078;2024-01-07T02:57:49;100563.81;;;-1.08;100.00
55757;BME280;41676;44.610;44.078;2024-01-07T03:02:50;100551.38;;;-1.03;100.00
55757;BME280;41676;44.610;44.078;2024-01-07T03:07:51;100536.84;;;-1.07;100.00
55757;BME280;41676;44.610;44.078;2024-01-07T03:12:52;100535.25;;;-1.09;100.00
55757;BME280;41676;44.610;44.078;2024-01-07T03:17:52;100500.00;;;-1.31;100.00
55757;BME280;41676;44.610;44.078;2024-01-07T03:22:53;100491.00;;;-1.41;100.00
55757;BME280;41676;44.610;44.078;2024-01-07T03:27:55;100515.34;;;-1.26;100.00
55757;BME280;41676;44.610;44.078;2024-01-07T03:32:56;100505.59;;;-1.23;100.00
55757;BME280;41676;44.610;44.078;2024-01-07T03:37:57;100495.75;;;-1.18;100.00
55757;BME280;41676;44.610;44.078;2024-01-07T03:42:57;100515.91;;;-0.91;100.00
55757;BME280;41676;44.610;44.078;2024-01-07T03:47:58;100488.03;;;-1.05;100.00
55757;BME280;41676;44.610;44.078;2024-01-07T03:52:59;100506.63;;;-0.95;100.00
55757;BME280;41676;44.610;44.078;2024-01-07T03:58:00;100450.38;;;-1.29;100.00
55757;BME280;41676;44.610;44.078;2024-01-07T04:03:01;100468.81;;;-1.32;100.00
55757;BME280;41676;44.610;44.078;2024-01-07T04:08:03;100502.28;;;-1.10;100.00
55757;BME280;41676;44.610;44.078;2024-01-07T04:13:04;100480.94;;;-1.31;100.00
55757;BME280;41676;44.610;44.078;2024-01-07T04:18:05;100525.13;;;-1.00;100.00
55757;BME280;41676;44.610;44.078;2024-01-07T04:23:06;100528.38;;;-0.96;100.00
55757;BME280;41676;44.610;44.078;2024-01-07T04:28:07;100513.56;;;-1.10;100.00
55757;BME280;41676;44.610;44.078;2024-01-07T04:33:08;100511.19;;;-0.99;100.00
55757;BME280;41676;44.610;44.078;2024-01-07T04:38:09;100513.25;;;-0.89;100.00
55757;BME280;41676;44.610;44.078;2024-01-07T04:43:09;100520.41;;;-0.79;100.00
55757;BME280;41676;44.610;44.078;2024-01-07T04:48:11;100499.84;;;-0.83;100.00
55757;BME280;41676;44.610;44.078;2024-01-07T04:53:11;100482.13;;;-0.78;100.00
55757;BME280;41676;44.610;44.078;2024-01-07T04:58:13;100495.44;;;-0.54;100.00
55757;BME280;41676;44.610;44.078;2024-01-07T05:03:14;100445.59;;;-0.78;100.00
55757;BME280;41676;44.610;44.078;2024-01-07T05:08:14;100445.91;;;-0.68;100.00
55757;BME280;41676;44.610;44.078;2024-01-07T05:13:15;100512.31;;;-0.31;100.00
55757;BME280;41676;44.610;44.078;2024-01-07T05:18:16;100456.69;;;-0.60;100.00
55757;BME280;41676;44.610;44.078;2024-01-07T05:23:17;100441.13;;;-0.62;100.00
55757;BME280;41676;44.610;44.078;2024-01-07T05:28:18;100487.44;;;-0.22;100.00
55757;BME280;41676;44.610;44.078;2024-01-07T05:33:20;100488.06;;;-0.19;100.00
55757;BME280;41676;44.610;44.078;2024-01-07T05:38:21;100471.66;;;-0.21;100.00
55757;BME280;41676;44.610;44.078;2024-01-07T05:43:22;100455.03;;;-0.06;100.00
55757;BME280;41676;44.610;44.078;2024-01-07T05:48:22;100399.72;;;0.15;100.00
55757;BME280;41676;44.610;44.078;2024-01-07T05:53:23;100453.41;;;0.86;100.00
55757;BME280;41676;44.610;44.078;2024-01-07T05:58:24;100447.22;;;1.51;100.00
55757;BME280;41676;44.610;44.078;2024-01-07T06:03:25;100431.06;;;1.94;100.00
55757;BME280;41676;44.610;44.078;2024-01-07T06:08:28;100352.66;;;1.79;100.00
55757;BME280;41676;44.610;44.078;2024-01-07T06:13:29;100392.50;;;2.55;100.00
55757;BME280;41676;44.610;44.078;2024-01-07T06:18:30;100399.91;;;2.61;100.00
55757;BME280;41676;44.610;44.078;2024-01-07T06:23:34;100382.88;;;2.67;100.00
55757;BME280;41676;44.610;44.078;2024-01-07T06:28:35;100371.81;;;2.97;100.00
55757;BME280;41676;44.610;44.078;2024-01-07T06:33:35;100352.25;;;3.12;100.00
55757;BME280;41676;44.610;44.078;2024-01-07T06:38:36;100367.28;;;3.44;100.00
55757;BME280;41676;44.610;44.078;2024-01-07T06:43:37;100311.66;;;3.28;100.00
55757;BME280;41676;44.610;44.078;2024-01-07T06:48:38;100355.63;;;3.80;100.00
55757;BME280;41676;44.610;44.078;2024-01-07T06:53:39;100310.59;;;3.74;100.00
55757;BME280;41676;44.610;44.078;2024-01-07T06:58:40;100346.78;;;4.34;100.00
55757;BME280;41676;44.610;44.078;2024-01-07T07:03:41;100345.28;;;4.63;99.72
55757;BME280;41676;44.610;44.078;2024-01-07T07:08:42;100258.25;;;4.45;98.93
55757;BME280;41676;44.610;44.078;2024-01-07T07:13:43;100343.97;;;5.39;97.66
55757;BME280;41676;44.610;44.078;2024-01-07T07:18:43;100345.53;;;5.71;96.88
55757;BME280;41676;44.610;44.078;2024-01-07T07:23:44;100290.47;;;5.68;96.23
55757;BME280;41676;44.610;44.078;2024-01-07T07:28:46;100358.38;;;6.24;95.47
55757;BME280;41676;44.610;44.078;2024-01-07T07:33:47;100347.53;;;6.37;94.88
55757;BME280;41676;44.610;44.078;2024-01-07T07:38:47;100335.28;;;6.65;93.42
55757;BME280;41676;44.610;44.078;2024-01-07T07:43:48;100328.56;;;6.80;91.87
55757;BME280;41676;44.610;44.078;2024-01-07T07:48:49;100332.31;;;7.15;90.65
55757;BME280;41676;44.610;44.078;2024-01-07T07:53:50;100271.72;;;7.31;89.35
55757;BME280;41676;44.610;44.078;2024-01-07T07:58:51;100324.13;;;7.64;88.32
55757;BME280;41676;44.610;44.078;2024-01-07T08:03:51;100302.06;;;7.73;88.41
55757;BME280;41676;44.610;44.078;2024-01-07T08:08:52;100302.28;;;7.80;87.60
55757;BME280;41676;44.610;44.078;2024-01-07T08:13:53;100284.16;;;7.85;87.45
55757;BME280;41676;44.610;44.078;2024-01-07T08:18:54;100224.38;;;7.56;87.02
55757;BME280;41676;44.610;44.078;2024-01-07T08:23:58;100278.56;;;7.88;86.21
55757;BME280;41676;44.610;44.078;2024-01-07T08:28:59;100291.00;;;7.95;85.90
55757;BME280;41676;44.610;44.078;2024-01-07T08:34:00;100240.25;;;7.74;85.45
55757;BME280;41676;44.610;44.078;2024-01-07T08:39:01;100219.91;;;7.74;84.67
55757;BME280;41676;44.610;44.078;2024-01-07T08:44:02;100232.56;;;8.51;83.21
55757;BME280;41676;44.610;44.078;2024-01-07T08:49:03;100264.13;;;9.21;81.36
55757;BME280;41676;44.610;44.078;2024-01-07T08:54:03;100257.75;;;9.48;79.77
55757;BME280;41676;44.610;44.078;2024-01-07T08:59:04;100251.97;;;9.52;78.71
55757;BME280;41676;44.610;44.078;2024-01-07T09:04:05;100239.84;;;9.50;78.63
55757;BME280;41676;44.610;44.078;2024-01-07T09:09:06;100232.75;;;9.58;77.48
55757;BME280;41676;44.610;44.078;2024-01-07T09:14:07;100214.97;;;9.51;77.98
55757;BME280;41676;44.610;44.078;2024-01-07T09:19:08;100200.41;;;9.47;78.57
55757;BME280;41676;44.610;44.078;2024-01-07T09:24:09;100189.63;;;9.56;78.30
55757;BME280;41676;44.610;44.078;2024-01-07T09:29:10;100172.41;;;9.77;77.34
55757;BME280;41676;44.610;44.078;2024-01-07T09:34:11;100175.34;;;9.98;76.48
55757;BME280;41676;44.610;44.078;2024-01-07T09:39:12;100164.59;;;10.08;75.52
55757;BME280;41676;44.610;44.078;2024-01-07T09:44:13;100160.25;;;10.15;75.04
55757;BME280;41676;44.610;44.078;2024-01-07T09:49:14;100159.72;;;10.36;74.54
55757;BME280;41676;44.610;44.078;2024-01-07T09:54:16;100098.72;;;10.03;73.72
55757;BME280;41676;44.610;44.078;2024-01-07T09:59:20;100148.97;;;10.30;74.10
55757;BME280;41676;44.610;44.078;2024-01-07T10:04:21;100119.88;;;10.36;73.24
55757;BME280;41676;44.610;44.078;2024-01-07T10:09:22;100127.63;;;10.54;73.19
55757;BME280;41676;44.610;44.078;2024-01-07T10:14:24;100131.75;;;10.57;72.33
55757;BME280;41676;44.610;44.078;2024-01-07T10:19:27;100124.13;;;10.54;72.03
55757;BME280;41676;44.610;44.078;2024-01-07T10:24:41;100122.75;;;10.66;71.09
55757;BME280;41676;44.610;44.078;2024-01-07T10:29:47;100101.88;;;10.55;70.77
55757;BME280;41676;44.610;44.078;2024-01-07T10:34:57;100104.38;;;10.79;71.02
55757;BME280;41676;44.610;44.078;2024-01-07T10:40:02;100084.09;;;10.86;71.19
55757;BME280;41676;44.610;44.078;2024-01-07T10:45:04;100067.91;;;10.73;70.61
55757;BME280;41676;44.610;44.078;2024-01-07T10:50:06;100069.56;;;10.74;70.23
55757;BME280;41676;44.610;44.078;2024-01-07T10:55:11;100082.66;;;10.76;70.87
55757;BME280;41676;44.610;44.078;2024-01-07T11:00:16;100025.56;;;10.48;69.89
55757;BME280;41676;44.610;44.078;2024-01-07T11:05:33;100049.59;;;10.78;68.71
55757;BME280;41676;44.610;44.078;2024-01-07T11:10:48;100037.91;;;10.87;68.99
55757;BME280;41676;44.610;44.078;2024-01-07T11:20:50;100046.75;;;11.03;68.77
55757;BME280;41676;44.610;44.078;2024-01-07T11:25:51;100052.50;;;10.91;68.87
55757;BME280;41676;44.610;44.078;2024-01-07T11:30:54;100007.34;;;10.68;68.54
55757;BME280;41676;44.610;44.078;2024-01-07T11:36:00;100037.97;;;11.02;67.67
55757;BME280;41676;44.610;44.078;2024-01-07T11:41:03;100039.69;;;10.95;68.25
55757;BME280;41676;44.610;44.078;2024-01-07T11:46:06;100018.44;;;10.72;68.55
55757;BME280;41676;44.610;44.078;2024-01-07T11:51:06;100032.66;;;10.79;67.88
55757;BME280;41676;44.610;44.078;2024-01-07T11:56:08;99980.44;;;10.40;67.86
55757;BME280;41676;44.610;44.078;2024-01-07T12:01:09;100056.28;;;10.74;68.10
55757;BME280;41676;44.610;44.078;2024-01-07T12:06:10;100045.03;;;10.64;68.36
55757;BME280;41676;44.610;44.078;2024-01-07T12:11:16;100042.63;;;10.54;67.98
55757;BME280;41676;44.610;44.078;2024-01-07T12:16:17;99991.53;;;10.13;68.54
55757;BME280;41676;44.610;44.078;2024-01-07T12:21:21;100027.00;;;10.20;67.62
55757;BME280;41676;44.610;44.078;2024-01-07T12:26:26;100038.81;;;10.17;67.73
55757;BME280;41676;44.610;44.078;2024-01-07T12:31:27;99941.06;;;9.50;68.75
55757;BME280;41676;44.610;44.078;2024-01-07T12:36:30;99978.16;;;9.58;68.58
55757;BME280;41676;44.610;44.078;2024-01-07T12:41:32;100006.34;;;9.51;69.32
55757;BME280;41676;44.610;44.078;2024-01-07T12:46:32;100043.59;;;9.66;69.93
55757;BME280;41676;44.610;44.078;2024-01-07T12:51:33;100036.03;;;9.38;70.50
55757;BME280;41676;44.610;44.078;2024-01-07T12:56:34;100030.25;;;9.19;71.12
55757;BME280;41676;44.610;44.078;2024-01-07T13:01:35;100058.25;;;9.13;71.45
55757;BME280;41676;44.610;44.078;2024-01-07T13:06:37;100040.34;;;8.74;72.27
55757;BME280;41676;44.610;44.078;2024-01-07T13:11:38;100040.31;;;8.66;72.91
55757;BME280;41676;44.610;44.078;2024-01-07T13:16:38;99950.28;;;7.91;73.08
55757;BME280;41676;44.610;44.078;2024-01-07T13:21:39;100036.53;;;8.18;73.75
55757;BME280;41676;44.610;44.078;2024-01-07T13:26:40;100042.91;;;8.07;74.67
55757;BME280;41676;44.610;44.078;2024-01-07T13:31:42;100029.22;;;7.77;75.54
55757;BME280;41676;44.610;44.078;2024-01-07T13:36:44;100052.00;;;7.70;76.39
55757;BME280;41676;44.610;44.078;2024-01-07T13:41:44;100043.94;;;7.46;76.83
55757;BME280;41676;44.610;44.078;2024-01-07T13:46:46;100011.91;;;7.05;78.31
55757;BME280;41676;44.610;44.078;2024-01-07T13:51:47;100034.34;;;7.01;78.69
55757;BME280;41676;44.610;44.078;2024-01-07T13:56:48;100005.94;;;6.59;79.43
55757;BME280;41676;44.610;44.078;2024-01-07T14:01:49;100027.09;;;6.31;79.80
55757;BME280;41676;44.610;44.078;2024-01-07T14:06:59;100041.53;;;6.27;81.74
55757;BME280;41676;44.610;44.078;2024-01-07T14:12:00;99998.56;;;5.89;80.91
55757;BME280;41676;44.610;44.078;2024-01-07T14:17:00;100019.91;;;5.96;81.35
55757;BME280;41676;44.610;44.078;2024-01-07T14:22:01;99991.19;;;5.56;81.79
55757;BME280;41676;44.610;44.078;2024-01-07T14:27:02;99981.09;;;5.41;82.49
55757;BME280;41676;44.610;44.078;2024-01-07T14:32:05;100042.09;;;5.46;83.32
55757;BME280;41676;44.610;44.078;2024-01-07T14:37:07;100009.88;;;5.15;83.73
55757;BME280;41676;44.610;44.078;2024-01-07T14:42:10;100026.63;;;5.34;83.95
55757;BME280;41676;44.610;44.078;2024-01-07T14:47:11;100039.97;;;5.13;84.10
55757;BME280;41676;44.610;44.078;2024-01-07T14:52:12;100033.72;;;5.04;84.88
55757;BME280;41676;44.610;44.078;2024-01-07T14:57:13;100031.78;;;4.87;85.38
55757;BME280;41676;44.610;44.078;2024-01-07T15:02:13;100041.22;;;4.79;86.02
55757;BME280;41676;44.610;44.078;2024-01-07T15:07:14;100052.28;;;4.64;86.46
55757;BME280;41676;44.610;44.078;2024-01-07T15:12:15;100055.84;;;4.43;86.88
55757;BME280;41676;44.610;44.078;2024-01-07T15:17:16;100056.53;;;4.35;87.10
55757;BME280;41676;44.610;44.078;2024-01-07T15:22:18;99993.97;;;3.79;87.36
55757;BME280;41676;44.610;44.078;2024-01-07T15:27:19;99974.28;;;3.64;87.64
55757;BME280;41676;44.610;44.078;2024-01-07T15:32:20;100058.91;;;3.98;88.25
55757;BME280;41676;44.610;44.078;2024-01-07T15:37:21;100036.59;;;3.62;88.11
55757;BME280;41676;44.610;44.078;2024-01-07T15:42:21;100067.75;;;3.66;88.03
55757;BME280;41676;44.610;44.078;2024-01-07T15:47:23;100065.97;;;3.46;88.56
55757;BME280;41676;44.610;44.078;2024-01-07T15:52:24;100047.28;;;3.18;89.22
55757;BME280;41676;44.610;44.078;2024-01-07T15:57:25;100068.34;;;3.28;88.88
55757;BME280;41676;44.610;44.078;2024-01-07T16:02:25;99947.66;;;2.54;89.24
55757;BME280;41676;44.610;44.078;2024-01-07T16:07:27;100083.31;;;3.16;89.73
55757;BME280;41676;44.610;44.078;2024-01-07T16:12:29;100084.78;;;3.09;89.82
55757;BME280;41676;44.610;44.078;2024-01-07T16:17:31;100072.63;;;3.08;89.63
55757;BME280;41676;44.610;44.078;2024-01-07T16:22:31;100018.72;;;2.83;89.97
55757;BME280;41676;44.610;44.078;2024-01-07T16:27:32;100058.28;;;3.12;90.44
55757;BME280;41676;44.610;44.078;2024-01-07T16:32:33;100033.25;;;2.87;90.86
55757;BME280;41676;44.610;44.078;2024-01-07T16:37:34;100057.63;;;2.99;90.95
55757;BME280;41676;44.610;44.078;2024-01-07T16:42:35;100072.47;;;2.89;91.35
55757;BME280;41676;44.610;44.078;2024-01-07T16:47:36;100097.56;;;2.70;92.39
55757;BME280;41676;44.610;44.078;2024-01-07T16:52:36;100035.91;;;2.33;92.25
55757;BME280;41676;44.610;44.078;2024-01-07T16:57:37;100070.69;;;2.46;92.34
55757;BME280;41676;44.610;44.078;2024-01-07T17:02:38;100070.72;;;2.23;92.15
55757;BME280;41676;44.610;44.078;2024-01-07T17:07:39;100070.75;;;2.01;92.88
55757;BME280;41676;44.610;44.078;2024-01-07T17:12:40;100015.63;;;1.80;93.01
55757;BME280;41676;44.610;44.078;2024-01-07T17:17:41;100052.41;;;2.01;92.94
55757;BME280;41676;44.610;44.078;2024-01-07T17:22:42;100000.50;;;1.72;93.16
55757;BME280;41676;44.610;44.078;2024-01-07T17:27:43;100083.72;;;2.02;94.43
55757;BME280;41676;44.610;44.078;2024-01-07T17:32:44;100031.81;;;1.51;94.14
55757;BME280;41676;44.610;44.078;2024-01-07T17:37:44;100119.41;;;1.70;94.67
55757;BME280;41676;44.610;44.078;2024-01-07T17:42:45;100086.28;;;1.46;94.95
55757;BME280;41676;44.610;44.078;2024-01-07T17:47:46;100092.97;;;1.50;95.01
55757;BME280;41676;44.610;44.078;2024-01-07T17:52:47;100082.38;;;1.52;95.17
55757;BME280;41676;44.610;44.078;2024-01-07T17:57:48;100074.84;;;1.36;95.33
55757;BME280;41676;44.610;44.078;2024-01-07T18:02:49;100019.66;;;0.93;94.63
55757;BME280;41676;44.610;44.078;2024-01-07T18:07:50;100083.28;;;1.28;95.47
55757;BME280;41676;44.610;44.078;2024-01-07T18:12:51;100082.91;;;1.22;95.24
55757;BME280;41676;44.610;44.078;2024-01-07T18:17:51;100017.78;;;0.95;95.93
55757;BME280;41676;44.610;44.078;2024-01-07T18:22:52;100058.53;;;1.21;95.84
55757;BME280;41676;44.610;44.078;2024-01-07T18:27:53;100052.91;;;1.14;95.80
55757;BME280;41676;44.610;44.078;2024-01-07T18:32:54;100051.81;;;1.06;95.47
55757;BME280;41676;44.610;44.078;2024-01-07T18:37:55;100056.06;;;0.96;96.65
55757;BME280;41676;44.610;44.078;2024-01-07T18:42:56;100056.97;;;0.83;96.75
55757;BME280;41676;44.610;44.078;2024-01-07T18:47:59;100063.00;;;0.73;96.12
55757;BME280;41676;44.610;44.078;2024-01-07T18:53:00;100052.63;;;0.71;96.59
55757;BME280;41676;44.610;44.078;2024-01-07T18:58:01;100023.13;;;0.34;96.33
55757;BME280;41676;44.610;44.078;2024-01-07T19:03:02;100056.72;;;0.51;97.02
55757;BME280;41676;44.610;44.078;2024-01-07T19:08:03;100066.53;;;0.48;96.97
55757;BME280;41676;44.610;44.078;2024-01-07T19:13:04;99977.41;;;-0.21;97.17
55757;BME280;41676;44.610;44.078;2024-01-07T19:18:05;100040.75;;;-0.07;96.94
55757;BME280;41676;44.610;44.078;2024-01-07T19:23:06;100061.25;;;-0.13;97.24
55757;BME280;41676;44.610;44.078;2024-01-07T19:28:07;100134.53;;;0.22;97.22
55757;BME280;41676;44.610;44.078;2024-01-07T19:33:08;100138.19;;;0.19;97.94
55757;BME280;41676;44.610;44.078;2024-01-07T19:38:09;100126.59;;;0.23;98.13
55757;BME280;41676;44.610;44.078;2024-01-07T19:43:10;100101.88;;;-0.09;97.98
55757;BME280;41676;44.610;44.078;2024-01-07T19:48:11;100080.88;;;-0.08;97.26
55757;BME280;41676;44.610;44.078;2024-01-07T19:53:13;100082.13;;;-0.01;97.58
55757;BME280;41676;44.610;44.078;2024-01-07T19:58:15;100007.72;;;-0.32;97.29
55757;BME280;41676;44.610;44.078;2024-01-07T20:03:17;100082.25;;;-0.02;98.03
55757;BME280;41676;44.610;44.078;2024-01-07T20:08:18;100018.25;;;-0.33;97.26
55757;BME280;41676;44.610;44.078;2024-01-07T20:13:21;100027.66;;;-0.43;97.86
55757;BME280;41676;44.610;44.078;2024-01-07T20:18:23;100081.00;;;-0.22;98.51
55757;BME280;41676;44.610;44.078;2024-01-07T20:23:24;100083.63;;;-0.35;98.77
55757;BME280;41676;44.610;44.078;2024-01-07T20:28:25;100087.56;;;-0.55;98.69
55757;BME280;41676;44.610;44.078;2024-01-07T20:33:26;100105.63;;;-0.52;98.80
55757;BME280;41676;44.610;44.078;2024-01-07T20:38:27;100117.75;;;-0.51;99.67
55757;BME280;41676;44.610;44.078;2024-01-07T20:43:28;100120.88;;;-0.46;99.61
55757;BME280;41676;44.610;44.078;2024-01-07T20:48:28;100119.63;;;-0.53;100.00
55757;BME280;41676;44.610;44.078;2024-01-07T20:53:31;100125.59;;;-0.51;100.00
55757;BME280;41676;44.610;44.078;2024-01-07T20:58:32;100154.50;;;-0.41;100.00
55757;BME280;41676;44.610;44.078;2024-01-07T21:03:33;100127.34;;;-0.51;100.00
55757;BME280;41676;44.610;44.078;2024-01-07T21:08:34;100096.94;;;-0.78;100.00
55757;BME280;41676;44.610;44.078;2024-01-07T21:13:35;100126.09;;;-0.46;100.00
55757;BME280;41676;44.610;44.078;2024-01-07T21:18:36;100118.47;;;-0.49;100.00
55757;BME280;41676;44.610;44.078;2024-01-07T21:23:37;100107.53;;;-0.54;100.00
55757;BME280;41676;44.610;44.078;2024-01-07T21:28:39;100117.03;;;-0.40;100.00
55757;BME280;41676;44.610;44.078;2024-01-07T21:33:39;100117.63;;;-0.49;100.00
55757;BME280;41676;44.610;44.078;2024-01-07T21:38:40;100116.81;;;-0.50;100.00
55757;BME280;41676;44.610;44.078;2024-01-07T21:43:41;100134.13;;;-0.49;100.00
55757;BME280;41676;44.610;44.078;2024-01-07T21:48:42;100061.78;;;-0.72;100.00
55757;BME280;41676;44.610;44.078;2024-01-07T21:53:44;100121.00;;;-0.34;100.00
55757;BME280;41676;44.610;44.078;2024-01-07T21:58:45;100122.84;;;-0.36;100.00
55757;BME280;41676;44.610;44.078;2024-01-07T22:03:45;100125.78;;;-0.28;100.00
55757;BME280;41676;44.610;44.078;2024-01-07T22:08:46;100112.03;;;-0.17;100.00
55757;BME280;41676;44.610;44.078;2024-01-07T22:13:47;100113.03;;;0.06;100.00
55757;BME280;41676;44.610;44.078;2024-01-07T22:18:48;100049.66;;;0.04;100.00
55757;BME280;41676;44.610;44.078;2024-01-07T22:23:49;100095.00;;;0.39;100.00
55757;BME280;41676;44.610;44.078;2024-01-07T22:28:50;100104.16;;;0.58;100.00
55757;BME280;41676;44.610;44.078;2024-01-07T22:33:50;100101.69;;;0.67;100.00
55757;BME280;41676;44.610;44.078;2024-01-07T22:38:51;100081.88;;;0.52;100.00
55757;BME280;41676;44.610;44.078;2024-01-07T22:43:52;100112.44;;;0.76;100.00
55757;BME280;41676;44.610;44.078;2024-01-07T22:48:53;100120.59;;;0.71;100.00
55757;BME280;41676;44.610;44.078;2024-01-07T22:53:54;100120.38;;;0.74;100.00
55757;BME280;41676;44.610;44.078;2024-01-07T22:58:54;100118.44;;;0.65;100.00
55757;BME280;41676;44.610;44.078;2024-01-07T23:03:55;100078.69;;;0.36;100.00
55757;BME280;41676;44.610;44.078;2024-01-07T23:08:57;100141.88;;;0.66;100.00
55757;BME280;41676;44.610;44.078;2024-01-07T23:13:59;100114.88;;;0.42;100.00
55757;BME280;41676;44.610;44.078;2024-01-07T23:19:00;100139.56;;;0.62;100.00
55757;BME280;41676;44.610;44.078;2024-01-07T23:24:01;100148.66;;;0.69;100.00
55757;BME280;41676;44.610;44.078;2024-01-07T23:29:02;100162.72;;;0.79;100.00
55757;BME280;41676;44.610;44.078;2024-01-07T23:34:02;100150.72;;;0.77;100.00
55757;BME280;41676;44.610;44.078;2024-01-07T23:39:03;100169.81;;;0.90;100.00
55757;BME280;41676;44.610;44.078;2024-01-07T23:44:04;100182.56;;;0.95;100.00
55757;BME280;41676;44.610;44.078;2024-01-07T23:49:05;100188.38;;;1.11;100.00
55757;BME280;41676;44.610;44.078;2024-01-07T23:54:05;100198.41;;;1.28;100.00
55757;BME280;41676;44.610;44.078;2024-01-07T23:59:06;100145.53;;;1.12;100.00
